createdAt,value
2022-11-28T00:01:55.300Z,73.68
2022-11-28T00:06:59.358Z,73.82
2022-11-28T00:12:02.129Z,73.84
2022-11-28T00:17:04.931Z,74.61
2022-11-28T00:22:08.956Z,74.57
2022-11-28T00:27:11.804Z,74.50
2022-11-28T00:32:14.586Z,74.34
2022-11-28T00:37:18.765Z,75.21
2022-11-28T00:42:22.198Z,74.96
2022-11-28T00:47:24.936Z,75.10
2022-11-28T00:52:28.978Z,75.47
2022-11-28T00:57:31.747Z,75.60
2022-11-28T01:02:34.519Z,75.63
2022-11-28T01:07:42.224Z,75.47
2022-11-28T01:12:45.406Z,75.57
2022-11-28T01:17:48.127Z,75.80
2022-11-28T01:22:52.192Z,75.33
2022-11-28T01:27:54.971Z,75.55
2022-11-28T01:32:57.706Z,75.59
2022-11-28T01:38:01.763Z,75.78
2022-11-28T01:43:04.422Z,75.93
2022-11-28T01:48:08.250Z,76.30
2022-11-28T01:53:12.611Z,76.07
2022-11-28T01:58:15.796Z,76.37
2022-11-28T02:03:21.175Z,76.59
2022-11-28T02:08:25.838Z,76.92
2022-11-28T02:13:37.218Z,76.92
2022-11-28T02:18:58.372Z,76.60
2022-11-28T02:24:32.195Z,76.89
2022-11-28T02:30:04.317Z,76.96
2022-11-28T02:35:11.516Z,77.22
2022-11-28T02:40:21.440Z,77.28
2022-11-28T02:45:28.803Z,77.46
2022-11-28T02:50:37.037Z,76.87
2022-11-28T02:55:41.135Z,77.23
2022-11-28T03:00:45.770Z,76.65
2022-11-28T03:05:53.659Z,77.11
2022-11-28T03:11:00.491Z,77.43
2022-11-28T03:16:08.797Z,77.39
2022-11-28T03:21:15.949Z,77.47
2022-11-28T03:26:23.011Z,77.84
2022-11-28T03:31:30.715Z,78.22
2022-11-28T03:36:38.522Z,78.08
2022-11-28T03:41:44.348Z,78.21
2022-11-28T03:46:49.118Z,77.96
2022-11-28T03:51:56.097Z,77.93
2022-11-28T03:57:01.824Z,78.10
2022-11-28T04:02:07.301Z,77.45
2022-11-28T04:07:17.982Z,77.85
2022-11-28T04:12:22.765Z,78.06
2022-11-28T04:17:30.625Z,77.68
2022-11-28T04:22:38.590Z,78.26
2022-11-28T04:27:45.126Z,78.38
2022-11-28T04:32:49.825Z,78.68
2022-11-28T04:37:56.038Z,78.07
2022-11-28T04:43:01.462Z,77.97
2022-11-28T04:48:04.856Z,78.32
2022-11-28T04:53:11.861Z,78.22
2022-11-28T04:58:17.198Z,78.30
2022-11-28T05:03:20.038Z,78.48
2022-11-28T05:08:24.076Z,78.68
2022-11-28T05:13:26.783Z,78.79
2022-11-28T05:18:29.490Z,78.44
2022-11-28T05:23:33.529Z,78.70
2022-11-28T05:28:36.288Z,78.44
2022-11-28T05:33:39.030Z,78.87
2022-11-28T05:38:43.555Z,78.51
2022-11-28T05:43:46.247Z,78.79
2022-11-28T05:48:49.392Z,79.23
2022-11-28T05:53:53.490Z,79.24
2022-11-28T05:58:56.474Z,79.15
2022-11-28T06:04:01.071Z,79.28
2022-11-28T06:09:06.226Z,79.23
2022-11-28T06:14:08.916Z,79.12
2022-11-28T06:19:13.288Z,78.94
2022-11-28T06:24:17.662Z,79.52
2022-11-28T06:29:20.365Z,79.13
2022-11-28T06:34:23.018Z,78.74
2022-11-28T06:39:27.037Z,79.37
2022-11-28T06:44:29.766Z,78.54
2022-11-28T06:49:32.393Z,78.45
2022-11-28T06:54:36.381Z,78.91
2022-11-28T06:59:39.159Z,78.41
2022-11-28T07:04:42.055Z,78.64
2022-11-28T07:09:46.810Z,78.82
2022-11-28T07:14:49.479Z,78.42
2022-11-28T07:19:55.156Z,79.11
2022-11-28T07:24:59.374Z,78.52
2022-11-28T07:30:02.080Z,79.07
2022-11-28T07:35:07.723Z,78.71
2022-11-28T07:40:13.465Z,78.56
2022-11-28T07:45:16.316Z,78.65
2022-11-28T07:50:19.049Z,78.61
2022-11-28T07:55:23.070Z,78.09
2022-11-28T08:00:25.835Z,78.37
2022-11-28T08:05:28.523Z,78.10
2022-11-28T08:10:32.547Z,78.64
2022-11-28T08:15:37.690Z,78.61
2022-11-28T08:20:40.384Z,78.56
2022-11-28T08:25:44.390Z,78.47
2022-11-28T08:30:47.066Z,78.27
2022-11-28T08:35:49.997Z,78.52
2022-11-28T08:41:01.727Z,78.70
2022-11-28T08:46:04.511Z,78.43
2022-11-28T08:51:07.487Z,78.39
2022-11-28T08:56:11.912Z,78.34
2022-11-28T09:01:19.504Z,78.32
2022-11-28T09:06:23.233Z,78.17
2022-11-28T09:11:27.279Z,78.60
2022-11-28T09:16:30.164Z,77.96
2022-11-28T09:21:32.876Z,78.56
2022-11-28T09:26:36.985Z,78.23
2022-11-28T09:31:44.360Z,78.24
2022-11-28T09:36:50.054Z,78.34
2022-11-28T09:42:01.123Z,78.34
2022-11-28T09:47:07.783Z,77.92
2022-11-28T09:52:28.000Z,76.93
2022-11-28T09:57:34.510Z,75.67
2022-11-28T10:02:43.144Z,74.67
2022-11-28T10:07:58.481Z,73.74
2022-11-28T10:13:07.447Z,72.29
2022-11-28T10:18:20.862Z,71.53
2022-11-28T10:23:25.627Z,70.65
2022-11-28T10:28:32.890Z,70.00
2022-11-28T10:33:39.901Z,69.21
2022-11-28T10:38:42.598Z,68.24
2022-11-28T10:43:50.569Z,67.71
2022-11-28T10:48:59.646Z,67.34
2022-11-28T10:54:15.538Z,66.85
2022-11-28T10:59:27.717Z,66.52
2022-11-28T11:04:32.048Z,66.52
2022-11-28T11:09:34.737Z,66.28
2022-11-28T11:14:40.812Z,66.31
2022-11-28T11:19:43.651Z,66.68
2022-11-28T11:24:46.630Z,66.11
2022-11-28T11:29:52.411Z,65.55
2022-11-28T11:34:56.654Z,65.26
2022-11-28T11:40:00.380Z,64.85
2022-11-28T11:50:32.966Z,64.60
2022-11-28T11:55:45.125Z,64.61
2022-11-28T12:00:48.061Z,64.32
2022-11-28T12:11:20.087Z,64.67
2022-11-28T12:16:35.283Z,64.44
2022-11-28T12:21:44.800Z,64.05
2022-11-28T12:26:50.475Z,64.11
2022-11-28T12:32:03.658Z,64.19
2022-11-28T12:37:17.093Z,63.95
2022-11-28T12:42:34.810Z,64.19
2022-11-28T12:47:44.245Z,64.25
2022-11-28T12:52:53.055Z,64.22
2022-11-28T12:58:02.797Z,63.83
2022-11-28T13:03:14.841Z,63.79
2022-11-28T13:08:48.938Z,63.76
2022-11-28T13:13:56.230Z,64.20
2022-11-28T13:19:03.717Z,64.08
2022-11-28T13:24:24.518Z,64.21
2022-11-28T13:29:33.153Z,63.93
2022-11-28T13:34:36.097Z,63.71
2022-11-28T13:39:46.237Z,63.44
2022-11-28T13:44:54.719Z,63.51
2022-11-28T13:50:34.712Z,63.24
2022-11-28T13:55:46.606Z,63.31
2022-11-28T14:01:08.702Z,63.34
2022-11-28T14:06:12.248Z,63.59
2022-11-28T14:11:42.050Z,63.65
2022-11-28T14:16:56.902Z,63.49
2022-11-28T14:22:13.531Z,63.58
2022-11-28T14:27:21.969Z,63.53
2022-11-28T14:32:31.155Z,63.44
2022-11-28T14:37:38.006Z,63.67
2022-11-28T14:43:00.290Z,63.72
2022-11-28T14:48:19.497Z,63.29
2022-11-28T14:53:46.287Z,62.82
2022-11-28T14:58:51.716Z,63.27
2022-11-28T15:03:59.845Z,63.21
2022-11-28T15:09:07.010Z,62.76
2022-11-28T15:14:21.022Z,63.15
2022-11-28T15:19:27.764Z,62.92
2022-11-28T15:24:32.568Z,63.04
2022-11-28T15:29:37.256Z,63.34
2022-11-28T15:34:39.920Z,63.33
2022-11-28T15:39:44.020Z,63.18
2022-11-28T15:44:48.066Z,63.34
2022-11-28T15:50:00.093Z,63.33
2022-11-28T15:55:03.770Z,63.19
2022-11-28T16:00:13.997Z,63.14
2022-11-28T16:05:20.948Z,63.36
2022-11-28T16:10:25.993Z,63.44
2022-11-28T16:15:30.285Z,63.51
2022-11-28T16:20:35.279Z,63.29
2022-11-28T16:25:38.822Z,62.84
2022-11-28T16:30:47.432Z,62.74
2022-11-28T16:35:50.277Z,62.72
2022-11-28T16:40:53.252Z,62.67
2022-11-28T16:46:00.979Z,62.32
2022-11-28T16:51:37.245Z,62.72
2022-11-28T16:56:45.069Z,62.86
2022-11-28T17:01:53.222Z,62.87
2022-11-28T17:06:58.061Z,62.95
2022-11-28T17:12:07.381Z,63.06
2022-11-28T17:17:14.448Z,63.08
2022-11-28T17:22:18.463Z,62.91
2022-11-28T17:27:21.267Z,62.77
2022-11-28T17:32:25.457Z,62.47
2022-11-28T17:37:28.113Z,62.39
2022-11-28T17:42:30.797Z,62.50
2022-11-28T17:47:34.807Z,62.64
2022-11-28T17:52:37.726Z,62.62
2022-11-28T17:57:40.496Z,62.67
2022-11-28T18:02:44.656Z,62.96
2022-11-28T18:07:47.339Z,62.33
2022-11-28T18:12:49.958Z,62.38
2022-11-28T18:17:55.146Z,62.26
2022-11-28T18:22:58.531Z,62.08
2022-11-28T18:28:01.280Z,62.14
2022-11-28T18:33:05.267Z,62.04
2022-11-28T18:38:10.655Z,62.15
2022-11-28T18:43:13.736Z,62.14
2022-11-28T18:48:17.903Z,62.38
2022-11-28T18:53:20.561Z,62.41
2022-11-28T18:58:23.303Z,62.61
2022-11-28T19:03:27.657Z,62.90
2022-11-28T19:08:30.401Z,62.52
2022-11-28T19:13:33.172Z,62.32
2022-11-28T19:18:38.631Z,62.06
2022-11-28T19:23:43.712Z,61.97
2022-11-28T19:28:46.623Z,62.18
2022-11-28T19:34:00.438Z,61.85
2022-11-28T19:39:04.320Z,61.95
2022-11-28T19:44:07.053Z,62.27
2022-11-28T19:49:21.382Z,62.58
2022-11-28T19:54:24.552Z,62.32
2022-11-28T19:59:31.221Z,62.16
2022-11-28T20:04:35.403Z,62.48
2022-11-28T20:09:38.491Z,62.49
2022-11-28T20:14:41.649Z,62.39
2022-11-28T20:19:46.213Z,62.83
2022-11-28T20:24:49.547Z,62.22
2022-11-28T20:29:52.214Z,62.67
2022-11-28T20:34:56.205Z,62.98
2022-11-28T20:39:58.819Z,62.49
2022-11-28T20:45:01.802Z,62.47
2022-11-28T20:50:08.500Z,62.38
2022-11-28T20:55:11.759Z,62.02
2022-11-28T21:00:15.580Z,61.96
2022-11-28T21:05:19.941Z,62.02
2022-11-28T21:10:22.637Z,61.78
2022-11-28T21:15:26.238Z,62.19
2022-11-28T21:20:30.270Z,62.69
2022-11-28T21:25:36.198Z,62.20
2022-11-28T21:30:41.652Z,62.30
2022-11-28T21:35:45.700Z,62.08
2022-11-28T21:40:52.947Z,62.16
2022-11-28T21:45:56.552Z,62.16
2022-11-28T21:51:01.180Z,62.51
2022-11-28T21:56:04.626Z,62.39
2022-11-28T22:01:09.719Z,62.72
2022-11-28T22:06:17.079Z,62.95
2022-11-28T22:11:20.949Z,62.63
2022-11-28T22:16:26.082Z,62.85
2022-11-28T22:26:53.541Z,63.24
2022-11-28T22:31:56.215Z,63.68
2022-11-28T22:37:00.588Z,63.96
2022-11-28T22:42:03.366Z,63.79
2022-11-28T22:47:06.291Z,64.29
2022-11-28T22:52:10.493Z,64.06
2022-11-28T22:57:13.205Z,64.35
2022-11-28T23:02:16.001Z,64.76
2022-11-28T23:07:20.065Z,64.88
2022-11-28T23:12:23.255Z,65.50
2022-11-28T23:17:26.316Z,65.76
2022-11-28T23:22:30.359Z,66.07
2022-11-28T23:27:33.099Z,66.34
2022-11-28T23:32:35.771Z,66.35
2022-11-28T23:37:40.981Z,67.01
2022-11-28T23:42:43.681Z,66.59
2022-11-28T23:47:46.329Z,67.09
2022-11-28T23:52:50.343Z,67.07
2022-11-28T23:57:53.049Z,67.31
